Time;durP1;ratioP1;P1;durP2;ratioP2;P2;SDS_P1;SDS_P2;PMS_P1;PMS_P2;Temp;Humidity;BMP_temperature;BMP_pressure;BME280_temperature;BME280_humidity;BME280_pressure;Samples;Min_cycle;Max_cycle;Signal;HPM_P1;HPM_P2
2022/12/13 00:01:32;;;;;;;19.00;13.30;;;;;;;;;;5060673;28;20663;-78
2022/12/13 00:03:59;;;;;;;21.33;14.10;;;;;;;;;;5060944;28;20194;-79
2022/12/13 00:06:25;;;;;;;17.73;13.33;;;;;;;;;;5058178;28;20195;-79
2022/12/13 00:08:51;;;;;;;17.97;14.17;;;;;;;;;;5063082;28;20667;-79
2022/12/13 00:11:18;;;;;;;16.30;12.93;;;;;;;;;;5058108;28;20191;-79
2022/12/13 00:13:46;;;;;;;18.03;13.93;;;;;;;;;;5053994;28;20199;-79
2022/12/13 00:16:13;;;;;;;18.33;13.73;;;;;;;;;;5060918;28;20230;-79
2022/12/13 00:18:40;;;;;;;19.80;13.50;;;;;;;;;;5059369;28;20259;-79
2022/12/13 00:21:12;;;;;;;16.63;13.27;;;;;;;;;;5056826;28;20177;-78
2022/12/13 00:23:38;;;;;;;16.33;13.00;;;;;;;;;;5055604;28;20183;-78
2022/12/13 00:26:09;;;;;;;18.60;13.63;;;;;;;;;;5054173;28;20241;-78
2022/12/13 00:28:36;;;;;;;16.40;13.80;;;;;;;;;;5066302;28;20220;-79
2022/12/13 00:31:02;;;;;;;19.67;14.10;;;;;;;;;;5066699;28;20654;-79
2022/12/13 00:33:29;;;;;;;18.70;12.70;;;;;;;;;;5053865;28;20543;-79
2022/12/13 00:35:55;;;;;;;15.50;13.43;;;;;;;;;;5052797;28;20227;-79
2022/12/13 00:38:21;;;;;;;19.13;14.77;;;;;;;;;;5049622;28;20212;-79
2022/12/13 00:40:48;;;;;;;18.77;14.67;;;;;;;;;;5056743;28;20245;-79
2022/12/13 00:43:14;;;;;;;17.33;13.47;;;;;;;;;;5063746;28;20203;-78
2022/12/13 00:45:40;;;;;;;17.00;13.33;;;;;;;;;;5073504;28;20199;-79
2022/12/13 00:48:06;;;;;;;17.07;14.67;;;;;;;;;;5056497;28;21339;-78
2022/12/13 00:50:32;;;;;;;22.10;13.67;;;;;;;;;;5055891;28;20199;-79
2022/12/13 00:52:59;;;;;;;17.00;13.67;;;;;;;;;;5057824;28;20230;-78
2022/12/13 00:55:25;;;;;;;18.57;14.37;;;;;;;;;;5061208;28;20200;-79
2022/12/13 00:57:51;;;;;;;20.47;14.47;;;;;;;;;;5049858;28;20212;-79
2022/12/13 01:00:17;;;;;;;18.73;14.03;;;;;;;;;;5054853;28;20582;-79
2022/12/13 01:02:44;;;;;;;17.50;13.57;;;;;;;;;;5062830;28;20616;-78
2022/12/13 01:05:10;;;;;;;18.50;14.43;;;;;;;;;;5063093;28;20188;-79
2022/12/13 01:07:37;;;;;;;19.37;13.60;;;;;;;;;;5061879;28;20232;-78
2022/12/13 01:10:04;;;;;;;17.57;13.87;;;;;;;;;;5059125;28;20187;-79
2022/12/13 01:12:30;;;;;;;16.80;13.43;;;;;;;;;;5051360;28;20191;-78
2022/12/13 01:14:56;;;;;;;19.07;14.80;;;;;;;;;;5054665;28;20187;-79
2022/12/13 01:17:22;;;;;;;19.53;13.77;;;;;;;;;;5055856;28;20220;-79
2022/12/13 01:19:48;;;;;;;18.97;14.87;;;;;;;;;;5054713;28;20564;-80
2022/12/13 01:22:14;;;;;;;20.73;14.80;;;;;;;;;;5055516;28;20223;-78
2022/12/13 01:24:40;;;;;;;20.87;14.57;;;;;;;;;;5057862;28;20198;-79
2022/12/13 01:27:06;;;;;;;19.03;14.33;;;;;;;;;;5057032;28;20178;-79
2022/12/13 01:29:32;;;;;;;17.43;14.27;;;;;;;;;;5053100;28;20187;-79
2022/12/13 01:31:58;;;;;;;19.57;14.70;;;;;;;;;;5052342;28;20211;-79
2022/12/13 01:34:24;;;;;;;17.70;13.47;;;;;;;;;;5055783;28;20251;-79
2022/12/13 01:36:50;;;;;;;21.73;13.97;;;;;;;;;;5056174;28;21564;-79
2022/12/13 01:39:18;;;;;;;19.37;13.87;;;;;;;;;;5055580;28;20187;-78
2022/12/13 01:41:45;;;;;;;19.67;14.87;;;;;;;;;;5053155;28;20213;-79
2022/12/13 01:44:30;;;;;;;15.47;13.17;;;;;;;;;;5053762;28;20554;-78
2022/12/13 01:46:56;;;;;;;19.53;14.00;;;;;;;;;;5051646;28;20718;-78
2022/12/13 01:49:22;;;;;;;17.87;13.63;;;;;;;;;;5050260;28;20896;-79
2022/12/13 01:51:51;;;;;;;18.57;14.47;;;;;;;;;;5048994;28;20219;-79
2022/12/13 01:54:20;;;;;;;19.80;15.03;;;;;;;;;;5053546;28;20171;-79
2022/12/13 01:56:52;;;;;;;18.53;13.97;;;;;;;;;;5071481;28;20621;-79
2022/12/13 01:59:19;;;;;;;21.60;15.10;;;;;;;;;;5049179;28;20281;-79
2022/12/13 02:01:45;;;;;;;19.50;13.03;;;;;;;;;;5051061;28;20673;-79
2022/12/13 02:04:11;;;;;;;21.47;14.80;;;;;;;;;;5050501;28;20195;-80
2022/12/13 02:06:43;;;;;;;17.73;13.67;;;;;;;;;;5047364;28;20204;-79
2022/12/13 02:09:09;;;;;;;21.97;15.57;;;;;;;;;;5062863;28;20649;-79
2022/12/13 02:11:38;;;;;;;20.33;15.40;;;;;;;;;;5067830;28;20219;-78
2022/12/13 02:14:04;;;;;;;19.47;14.87;;;;;;;;;;5050084;28;21059;-79
2022/12/13 02:16:51;;;;;;;23.33;15.03;;;;;;;;;;5058160;28;20332;-79
2022/12/13 02:19:36;;;;;;;20.27;14.73;;;;;;;;;;5056795;28;20198;-80
2022/12/13 02:22:21;;;;;;;21.50;15.67;;;;;;;;;;5053352;28;20739;-78
2022/12/13 02:24:53;;;;;;;22.47;15.30;;;;;;;;;;5050262;28;20184;-79
2022/12/13 02:27:28;;;;;;;18.40;14.00;;;;;;;;;;5057607;28;20181;-79
2022/12/13 02:30:13;;;;;;;20.80;14.33;;;;;;;;;;5055132;28;20616;-78
2022/12/13 02:32:44;;;;;;;19.77;14.53;;;;;;;;;;5062773;28;20217;-80
2022/12/13 02:35:14;;;;;;;17.37;14.40;;;;;;;;;;5057747;28;20237;-79
2022/12/13 02:38:01;;;;;;;21.70;15.63;;;;;;;;;;5056065;28;20573;-79
2022/12/13 02:40:38;;;;;;;21.57;14.23;;;;;;;;;;5058637;28;20222;-79
2022/12/13 02:43:06;;;;;;;17.53;13.40;;;;;;;;;;5052838;28;20183;-78
2022/12/13 02:45:46;;;;;;;18.50;13.10;;;;;;;;;;5041723;28;20476;-79
2022/12/13 02:48:14;;;;;;;17.57;13.90;;;;;;;;;;5057876;28;20179;-78
2022/12/13 02:50:41;;;;;;;19.17;14.40;;;;;;;;;;5074022;28;20180;-80
2022/12/13 02:53:09;;;;;;;17.43;13.20;;;;;;;;;;5052321;28;20234;-80
2022/12/13 02:55:38;;;;;;;18.00;14.00;;;;;;;;;;5056358;28;20206;-79
2022/12/13 02:58:04;;;;;;;18.60;13.77;;;;;;;;;;5053771;28;20246;-79
2022/12/13 03:00:48;;;;;;;18.63;14.70;;;;;;;;;;5056321;28;20191;-79
2022/12/13 03:03:21;;;;;;;18.40;14.13;;;;;;;;;;5065699;28;20246;-79
2022/12/13 03:08:48;;;;;;;19.80;14.83;;;;;;;;;;5051546;28;20202;-79
2022/12/13 03:11:16;;;;;;;19.90;15.00;;;;;;;;;;5056898;28;20215;-79
2022/12/13 03:13:55;;;;;;;20.60;15.83;;;;;;;;;;5059406;28;20223;-79
2022/12/13 03:16:24;;;;;;;20.43;15.87;;;;;;;;;;5053238;28;20189;-79
2022/12/13 03:18:57;;;;;;;21.90;15.60;;;;;;;;;;5061607;28;20574;-79
2022/12/13 03:21:23;;;;;;;22.77;16.63;;;;;;;;;;5061502;28;20179;-79
2022/12/13 03:23:49;;;;;;;21.53;17.10;;;;;;;;;;5058762;28;20212;-78
2022/12/13 03:26:17;;;;;;;21.63;16.77;;;;;;;;;;5057206;28;20261;-79
2022/12/13 03:28:43;;;;;;;21.60;17.20;;;;;;;;;;5059446;28;20220;-79
2022/12/13 03:31:09;;;;;;;20.87;17.10;;;;;;;;;;5054887;28;20250;-79
2022/12/13 03:33:35;;;;;;;22.50;17.53;;;;;;;;;;5050859;28;20725;-80
2022/12/13 03:36:02;;;;;;;25.20;18.07;;;;;;;;;;5053855;28;20252;-79
2022/12/13 03:38:28;;;;;;;20.33;16.53;;;;;;;;;;5057403;28;20212;-79
2022/12/13 03:40:57;;;;;;;22.20;16.40;;;;;;;;;;5058801;28;20275;-79
2022/12/13 03:43:23;;;;;;;24.50;17.93;;;;;;;;;;5056426;28;20197;-79
2022/12/13 03:45:49;;;;;;;24.27;18.60;;;;;;;;;;5059742;28;20237;-79
2022/12/13 03:48:15;;;;;;;23.27;17.37;;;;;;;;;;5057367;28;20192;-79
2022/12/13 03:50:41;;;;;;;25.43;18.67;;;;;;;;;;5059748;28;20192;-79
2022/12/13 03:53:07;;;;;;;23.00;18.13;;;;;;;;;;5060179;28;20187;-79
2022/12/13 03:55:34;;;;;;;23.13;18.20;;;;;;;;;;5060016;28;20199;-79
2022/12/13 03:58:00;;;;;;;21.43;17.63;;;;;;;;;;5058712;28;20216;-79
2022/12/13 04:00:26;;;;;;;23.30;18.53;;;;;;;;;;5060222;28;20562;-78
2022/12/13 04:02:52;;;;;;;24.97;18.27;;;;;;;;;;5072466;28;20240;-79
2022/12/13 04:05:18;;;;;;;22.63;17.50;;;;;;;;;;5061283;28;20237;-79
2022/12/13 04:07:44;;;;;;;22.83;17.63;;;;;;;;;;5054319;28;20187;-79
2022/12/13 04:10:10;;;;;;;21.10;17.20;;;;;;;;;;5048919;28;20611;-79
2022/12/13 04:15:21;;;;;;;24.70;18.43;;;;;;;;;;5059773;28;20237;-79
2022/12/13 04:17:47;;;;;;;21.67;16.77;;;;;;;;;;5050443;28;20565;-79
2022/12/13 04:20:13;;;;;;;23.67;18.63;;;;;;;;;;5057549;28;20718;-79
2022/12/13 04:22:39;;;;;;;24.30;17.73;;;;;;;;;;5060137;28;20674;-79
2022/12/13 04:25:05;;;;;;;23.93;18.23;;;;;;;;;;5057853;28;20184;-79
2022/12/13 04:27:31;;;;;;;24.33;17.90;;;;;;;;;;5059455;28;20277;-80
2022/12/13 04:29:57;;;;;;;27.33;20.03;;;;;;;;;;5058528;28;20218;-79
2022/12/13 04:32:23;;;;;;;25.07;19.07;;;;;;;;;;5055842;28;20185;-79
2022/12/13 04:34:49;;;;;;;25.63;20.23;;;;;;;;;;5055676;28;20228;-79
2022/12/13 04:37:15;;;;;;;26.20;18.93;;;;;;;;;;5057464;28;20216;-79
2022/12/13 04:39:41;;;;;;;27.23;18.90;;;;;;;;;;5055800;28;20203;-80
2022/12/13 04:42:07;;;;;;;22.67;18.83;;;;;;;;;;5063063;28;20178;-80
2022/12/13 04:44:33;;;;;;;26.33;20.17;;;;;;;;;;5057693;28;20222;-79
2022/12/13 04:47:01;;;;;;;27.33;19.63;;;;;;;;;;5052614;28;20222;-79
2022/12/13 04:49:28;;;;;;;23.00;17.40;;;;;;;;;;5055871;28;20188;-78
2022/12/13 04:51:54;;;;;;;27.63;18.53;;;;;;;;;;5056280;28;20198;-78
2022/12/13 04:54:20;;;;;;;24.50;19.33;;;;;;;;;;5055091;28;20184;-79
2022/12/13 04:56:46;;;;;;;24.33;17.47;;;;;;;;;;5049153;28;20239;-79
2022/12/13 04:59:12;;;;;;;22.37;18.73;;;;;;;;;;5046590;28;20223;-79
2022/12/13 05:01:38;;;;;;;23.07;17.33;;;;;;;;;;5047291;28;20196;-79
2022/12/13 05:04:04;;;;;;;22.53;17.77;;;;;;;;;;5054763;28;20180;-79
2022/12/13 05:06:30;;;;;;;21.57;17.43;;;;;;;;;;5051211;28;20183;-79
2022/12/13 05:08:56;;;;;;;23.37;17.40;;;;;;;;;;5051067;28;20193;-79
2022/12/13 05:11:22;;;;;;;21.23;16.23;;;;;;;;;;5057778;28;20259;-80
2022/12/13 05:13:48;;;;;;;22.17;17.13;;;;;;;;;;5053313;28;20271;-79
2022/12/13 05:16:14;;;;;;;22.77;17.27;;;;;;;;;;5050693;28;20705;-79
2022/12/13 05:18:41;;;;;;;20.33;16.97;;;;;;;;;;5046707;28;20204;-79
2022/12/13 05:21:08;;;;;;;19.67;16.90;;;;;;;;;;5055583;28;20947;-79
2022/12/13 05:23:34;;;;;;;21.77;16.63;;;;;;;;;;5055775;28;20190;-79
2022/12/13 05:26:00;;;;;;;20.13;16.50;;;;;;;;;;5051949;28;20186;-79
2022/12/13 05:28:27;;;;;;;22.70;16.50;;;;;;;;;;5051741;28;20198;-79
2022/12/13 05:30:54;;;;;;;21.00;16.43;;;;;;;;;;5051509;28;20700;-79
2022/12/13 05:33:21;;;;;;;21.93;17.57;;;;;;;;;;5053391;28;20184;-80
2022/12/13 05:35:47;;;;;;;18.67;15.90;;;;;;;;;;5054505;28;20380;-79
2022/12/13 05:38:13;;;;;;;22.63;17.17;;;;;;;;;;5050925;28;20923;-80
2022/12/13 05:40:39;;;;;;;21.70;16.03;;;;;;;;;;5046102;28;20196;-80
2022/12/13 05:43:05;;;;;;;21.50;16.17;;;;;;;;;;5049025;28;20188;-78
2022/12/13 05:45:32;;;;;;;20.13;15.60;;;;;;;;;;5044241;28;20184;-79
2022/12/13 05:47:58;;;;;;;20.50;16.03;;;;;;;;;;5049066;28;20179;-78
2022/12/13 05:50:29;;;;;;;20.70;14.93;;;;;;;;;;5037490;28;20203;-79
2022/12/13 05:52:55;;;;;;;18.90;14.67;;;;;;;;;;5046497;28;20292;-79
2022/12/13 05:55:21;;;;;;;18.87;15.60;;;;;;;;;;5046909;28;20265;-80
2022/12/13 05:57:48;;;;;;;19.00;15.03;;;;;;;;;;5044811;28;20984;-79
2022/12/13 06:00:14;;;;;;;22.00;15.60;;;;;;;;;;5054719;28;20219;-79
2022/12/13 06:02:41;;;;;;;19.90;14.60;;;;;;;;;;5050303;28;20192;-79
2022/12/13 06:05:08;;;;;;;17.20;14.50;;;;;;;;;;5049080;28;20189;-77
2022/12/13 06:07:35;;;;;;;19.07;14.70;;;;;;;;;;5052162;28;20624;-77
2022/12/13 06:10:01;;;;;;;18.87;14.67;;;;;;;;;;5051042;28;20195;-78
2022/12/13 06:12:27;;;;;;;19.43;14.63;;;;;;;;;;5057209;28;20250;-78
2022/12/13 06:14:53;;;;;;;17.23;13.63;;;;;;;;;;5050643;28;20240;-77
2022/12/13 06:17:20;;;;;;;17.87;14.10;;;;;;;;;;5054828;28;20279;-78
2022/12/13 06:19:47;;;;;;;17.90;13.47;;;;;;;;;;5052284;28;20199;-77
2022/12/13 06:22:12;;;;;;;15.90;12.53;;;;;;;;;;5056490;28;20193;-76
2022/12/13 06:24:39;;;;;;;18.03;14.20;;;;;;;;;;5051781;28;20183;-77
2022/12/13 06:27:05;;;;;;;15.70;13.17;;;;;;;;;;5053088;28;20191;-77
2022/12/13 06:29:31;;;;;;;17.33;13.90;;;;;;;;;;5055558;28;20190;-77
2022/12/13 06:31:58;;;;;;;15.80;12.87;;;;;;;;;;5054567;28;20215;-78
2022/12/13 06:34:24;;;;;;;15.00;12.27;;;;;;;;;;5056239;28;20235;-77
2022/12/13 06:36:50;;;;;;;15.87;11.77;;;;;;;;;;5054117;28;20604;-77
2022/12/13 06:39:16;;;;;;;14.17;11.50;;;;;;;;;;5066049;28;20183;-78
2022/12/13 06:41:42;;;;;;;15.13;11.73;;;;;;;;;;5048564;28;20215;-77
2022/12/13 06:44:09;;;;;;;13.57;10.57;;;;;;;;;;5051437;28;20187;-78
2022/12/13 06:46:35;;;;;;;12.17;10.57;;;;;;;;;;5050744;28;20192;-78
2022/12/13 06:49:01;;;;;;;14.23;11.50;;;;;;;;;;5054352;28;20205;-77
2022/12/13 06:51:27;;;;;;;14.53;11.53;;;;;;;;;;5053595;28;20528;-78
2022/12/13 06:53:53;;;;;;;14.50;10.90;;;;;;;;;;5056303;28;20651;-79
2022/12/13 06:56:19;;;;;;;15.87;11.60;;;;;;;;;;5055857;28;20195;-78
2022/12/13 06:58:45;;;;;;;14.63;11.47;;;;;;;;;;5055396;28;20221;-77
2022/12/13 07:01:15;;;;;;;14.80;11.50;;;;;;;;;;5059245;28;20247;-78
2022/12/13 07:03:41;;;;;;;12.90;10.20;;;;;;;;;;5050666;28;20180;-78
2022/12/13 07:06:08;;;;;;;13.67;11.20;;;;;;;;;;5062312;28;20176;-79
2022/12/13 07:08:35;;;;;;;14.87;11.10;;;;;;;;;;5052046;28;20193;-77
2022/12/13 07:11:01;;;;;;;14.13;10.97;;;;;;;;;;5062465;28;20189;-76
2022/12/13 07:13:27;;;;;;;13.20;10.73;;;;;;;;;;5063204;28;20180;-78
2022/12/13 07:15:53;;;;;;;13.63;10.27;;;;;;;;;;5063774;28;20179;-78
2022/12/13 07:18:19;;;;;;;14.47;10.13;;;;;;;;;;5064825;28;20529;-78
2022/12/13 07:20:45;;;;;;;14.10;11.10;;;;;;;;;;5062023;28;20261;-78
2022/12/13 07:23:11;;;;;;;12.50;10.87;;;;;;;;;;5060778;28;20181;-78
2022/12/13 07:25:37;;;;;;;13.27;10.93;;;;;;;;;;5061038;28;20195;-78
2022/12/13 07:28:05;;;;;;;15.87;10.50;;;;;;;;;;5085814;28;20281;-78
2022/12/13 07:30:38;;;;;;;15.43;10.40;;;;;;;;;;5065369;28;20636;-77
2022/12/13 07:33:04;;;;;;;15.10;10.87;;;;;;;;;;5062637;28;20218;-78
2022/12/13 07:35:31;;;;;;;12.90;10.47;;;;;;;;;;5064923;28;20227;-78
2022/12/13 07:37:57;;;;;;;13.30;11.60;;;;;;;;;;5064823;28;20214;-78
2022/12/13 07:40:23;;;;;;;13.03;10.73;;;;;;;;;;5069263;28;20591;-78
2022/12/13 07:42:52;;;;;;;15.07;11.23;;;;;;;;;;5063442;28;20229;-78
2022/12/13 07:45:18;;;;;;;15.27;11.33;;;;;;;;;;5060293;28;20215;-78
2022/12/13 07:47:44;;;;;;;15.10;11.87;;;;;;;;;;5060691;28;20252;-78
2022/12/13 07:50:10;;;;;;;16.47;12.50;;;;;;;;;;5064876;28;20562;-77
2022/12/13 07:52:36;;;;;;;16.77;12.97;;;;;;;;;;5065300;28;20192;-78
2022/12/13 07:55:03;;;;;;;20.00;13.47;;;;;;;;;;5063847;28;20190;-78
2022/12/13 07:57:29;;;;;;;15.57;13.27;;;;;;;;;;5084931;28;20193;-79
2022/12/13 07:59:55;;;;;;;15.37;12.37;;;;;;;;;;5063877;28;20200;-78
2022/12/13 08:02:21;;;;;;;19.43;13.13;;;;;;;;;;5068352;28;20184;-78
2022/12/13 08:04:48;;;;;;;16.03;12.80;;;;;;;;;;5070745;28;20200;-79
2022/12/13 08:07:14;;;;;;;18.10;14.07;;;;;;;;;;5056438;28;20192;-78
2022/12/13 08:09:40;;;;;;;16.83;13.20;;;;;;;;;;5065536;28;20180;-78
2022/12/13 08:12:06;;;;;;;17.37;13.53;;;;;;;;;;5071107;28;20183;-78
2022/12/13 08:14:32;;;;;;;17.93;14.33;;;;;;;;;;5066161;28;20193;-77
2022/12/13 08:16:58;;;;;;;17.07;13.70;;;;;;;;;;5062953;28;20221;-78
2022/12/13 08:19:24;;;;;;;17.17;13.53;;;;;;;;;;5061632;28;20189;-78
2022/12/13 08:21:51;;;;;;;16.37;13.03;;;;;;;;;;5066908;28;20692;-78
2022/12/13 08:24:17;;;;;;;17.57;13.83;;;;;;;;;;5065873;28;20177;-78
2022/12/13 08:26:43;;;;;;;15.47;12.97;;;;;;;;;;5069657;28;20196;-77
2022/12/13 08:29:09;;;;;;;15.97;12.70;;;;;;;;;;5066098;28;20594;-78
2022/12/13 08:31:35;;;;;;;15.10;12.60;;;;;;;;;;5062635;28;20660;-78
2022/12/13 08:34:01;;;;;;;18.30;13.50;;;;;;;;;;5060366;28;20183;-77
2022/12/13 08:36:27;;;;;;;16.93;13.00;;;;;;;;;;5065120;28;20201;-78
2022/12/13 08:38:57;;;;;;;15.23;12.67;;;;;;;;;;5064526;28;20294;-78
2022/12/13 08:41:23;;;;;;;15.80;13.03;;;;;;;;;;5068457;28;20603;-78
2022/12/13 08:43:49;;;;;;;15.50;12.90;;;;;;;;;;5062455;28;20605;-78
2022/12/13 08:46:15;;;;;;;18.97;13.37;;;;;;;;;;5067964;28;20231;-78
2022/12/13 08:48:41;;;;;;;17.57;13.07;;;;;;;;;;5057399;28;20229;-77
2022/12/13 08:51:11;;;;;;;12.93;11.47;;;;;;;;;;5067589;28;20180;-78
2022/12/13 08:53:37;;;;;;;15.70;11.33;;;;;;;;;;5063438;28;20247;-78
2022/12/13 08:56:05;;;;;;;15.43;12.03;;;;;;;;;;5066889;28;20293;-78
2022/12/13 08:58:31;;;;;;;15.23;12.33;;;;;;;;;;5060756;28;20213;-78
2022/12/13 09:00:57;;;;;;;13.37;11.70;;;;;;;;;;5057575;28;20258;-78
2022/12/13 09:03:23;;;;;;;15.87;12.27;;;;;;;;;;5062080;28;20186;-78
2022/12/13 09:05:49;;;;;;;20.03;13.07;;;;;;;;;;5062257;28;20192;-77
2022/12/13 09:08:15;;;;;;;14.40;11.90;;;;;;;;;;5061183;28;20204;-78
2022/12/13 09:10:41;;;;;;;12.30;10.97;;;;;;;;;;5056295;28;20186;-78
2022/12/13 09:13:07;;;;;;;14.43;12.07;;;;;;;;;;5062398;28;20644;-78
2022/12/13 09:15:33;;;;;;;15.17;11.37;;;;;;;;;;5063107;28;20214;-78
2022/12/13 09:17:59;;;;;;;14.33;12.00;;;;;;;;;;5060173;28;20313;-78
2022/12/13 09:20:26;;;;;;;15.60;11.93;;;;;;;;;;5064777;28;20744;-78
2022/12/13 09:22:53;;;;;;;16.27;12.27;;;;;;;;;;5064175;28;20183;-78
2022/12/13 09:25:19;;;;;;;14.80;11.50;;;;;;;;;;5065171;28;20187;-78
2022/12/13 09:27:45;;;;;;;15.43;12.13;;;;;;;;;;5054123;28;20743;-77
2022/12/13 09:30:14;;;;;;;15.53;11.80;;;;;;;;;;5063355;28;20178;-79
2022/12/13 09:32:42;;;;;;;14.50;12.17;;;;;;;;;;5057693;28;20214;-78
2022/12/13 09:35:08;;;;;;;20.37;15.33;;;;;;;;;;5055548;28;20213;-78
2022/12/13 09:37:34;;;;;;;22.20;14.63;;;;;;;;;;5050478;28;20762;-78
2022/12/13 09:40:00;;;;;;;15.43;12.03;;;;;;;;;;5048916;28;20192;-78
2022/12/13 09:42:29;;;;;;;20.33;14.00;;;;;;;;;;5057072;28;20254;-78
2022/12/13 09:45:03;;;;;;;18.40;14.23;;;;;;;;;;5063000;28;20181;-78
2022/12/13 09:47:35;;;;;;;23.23;15.53;;;;;;;;;;5054841;28;20188;-78
2022/12/13 09:50:05;;;;;;;17.13;13.20;;;;;;;;;;5050353;28;20184;-78
2022/12/13 09:52:35;;;;;;;16.83;12.90;;;;;;;;;;5060026;28;20730;-78
2022/12/13 09:55:01;;;;;;;17.53;12.57;;;;;;;;;;5050547;28;20177;-78
2022/12/13 09:57:31;;;;;;;14.67;10.83;;;;;;;;;;5066660;28;20277;-78
2022/12/13 09:59:57;;;;;;;14.43;11.47;;;;;;;;;;5065567;28;20276;-78
2022/12/13 10:02:25;;;;;;;15.03;12.47;;;;;;;;;;5063243;28;20186;-78
2022/12/13 10:04:52;;;;;;;38.50;23.97;;;;;;;;;;5065077;28;20188;-78
2022/12/13 10:07:23;;;;;;;30.63;18.43;;;;;;;;;;5065843;28;20786;-79
2022/12/13 10:10:00;;;;;;;20.80;14.67;;;;;;;;;;5068017;28;20254;-78
2022/12/13 10:12:27;;;;;;;19.20;14.20;;;;;;;;;;5067777;28;20182;-78
2022/12/13 10:14:59;;;;;;;15.63;11.23;;;;;;;;;;5066141;28;20193;-78
2022/12/13 10:17:28;;;;;;;18.73;13.93;;;;;;;;;;5064949;28;20311;-78
2022/12/13 10:19:54;;;;;;;28.47;18.33;;;;;;;;;;5065503;28;20184;-78
2022/12/13 10:22:24;;;;;;;31.23;19.57;;;;;;;;;;5066148;28;20184;-78
2022/12/13 10:24:51;;;;;;;20.57;13.73;;;;;;;;;;5055213;28;20549;-78
2022/12/13 10:27:20;;;;;;;14.90;11.40;;;;;;;;;;5056912;28;20286;-78
2022/12/13 10:30:23;;;;;;;20.60;13.50;;;;;;;;;;5066768;28;20196;-78
2022/12/13 10:32:55;;;;;;;15.10;11.73;;;;;;;;;;5025531;28;20203;-78
2022/12/13 10:35:24;;;;;;;14.27;11.60;;;;;;;;;;5024850;28;20286;-77
2022/12/13 10:37:50;;;;;;;13.27;11.20;;;;;;;;;;5025535;28;20216;-78
2022/12/13 10:40:25;;;;;;;16.30;12.00;;;;;;;;;;5025859;28;20762;-78
2022/12/13 10:43:13;;;;;;;15.83;13.20;;;;;;;;;;5025420;28;20189;-79
2022/12/13 10:45:42;;;;;;;15.23;12.03;;;;;;;;;;5028407;28;20580;-78
2022/12/13 10:48:18;;;;;;;16.73;13.30;;;;;;;;;;5026830;28;20244;-78
2022/12/13 10:50:55;;;;;;;17.10;13.77;;;;;;;;;;5027908;28;20184;-78
2022/12/13 10:53:21;;;;;;;18.43;13.47;;;;;;;;;;5024970;28;20288;-78
2022/12/13 10:55:54;;;;;;;17.43;13.50;;;;;;;;;;5026734;28;20354;-78
2022/12/13 10:58:20;;;;;;;17.93;13.23;;;;;;;;;;5028538;28;20211;-78
2022/12/13 11:00:48;;;;;;;19.90;14.07;;;;;;;;;;5028081;28;20189;-78
2022/12/13 11:03:31;;;;;;;21.40;14.87;;;;;;;;;;5025624;28;20243;-78
2022/12/13 11:06:03;;;;;;;16.10;13.10;;;;;;;;;;5027196;28;20194;-77
2022/12/13 11:08:29;;;;;;;17.90;13.63;;;;;;;;;;5050643;28;20695;-78
2022/12/13 11:10:59;;;;;;;18.47;14.57;;;;;;;;;;5066967;28;20269;-77
2022/12/13 11:13:45;;;;;;;21.30;15.60;;;;;;;;;;5063884;28;20184;-78
2022/12/13 11:16:14;;;;;;;20.47;15.17;;;;;;;;;;5067111;28;20223;-78
2022/12/13 11:18:41;;;;;;;17.13;13.57;;;;;;;;;;5059240;28;20266;-78
2022/12/13 11:21:07;;;;;;;18.20;13.83;;;;;;;;;;5061942;28;20276;-78
2022/12/13 11:23:42;;;;;;;18.10;13.77;;;;;;;;;;5051883;28;20255;-77
2022/12/13 11:26:10;;;;;;;18.73;14.17;;;;;;;;;;5055770;28;20270;-78
2022/12/13 11:28:55;;;;;;;21.30;15.13;;;;;;;;;;5059151;28;20191;-78
2022/12/13 11:31:23;;;;;;;39.47;27.70;;;;;;;;;;5068817;28;20271;-78
2022/12/13 11:33:59;;;;;;;44.47;29.83;;;;;;;;;;5054934;28;20183;-78
2022/12/13 11:36:36;;;;;;;134.57;67.83;;;;;;;;;;5077430;28;20199;-78
2022/12/13 11:39:10;;;;;;;55.47;33.63;;;;;;;;;;5054381;28;20207;-78
2022/12/13 11:41:40;;;;;;;22.43;15.60;;;;;;;;;;5056119;28;20288;-78
2022/12/13 11:44:12;;;;;;;21.43;16.30;;;;;;;;;;5067789;28;20176;-78
2022/12/13 11:46:41;;;;;;;22.60;16.37;;;;;;;;;;5053303;28;20185;-78
2022/12/13 11:49:18;;;;;;;21.30;15.70;;;;;;;;;;5051382;28;20180;-77
2022/12/13 11:51:53;;;;;;;18.80;14.53;;;;;;;;;;5075121;28;20181;-78
2022/12/13 11:54:24;;;;;;;18.80;14.73;;;;;;;;;;5061880;28;20190;-78
2022/12/13 11:56:51;;;;;;;20.17;14.93;;;;;;;;;;5060732;28;20195;-78
2022/12/13 11:59:20;;;;;;;18.27;14.10;;;;;;;;;;5063794;28;20222;-78
2022/12/13 12:01:52;;;;;;;19.93;15.33;;;;;;;;;;5058417;28;20191;-78
2022/12/13 12:04:26;;;;;;;17.93;14.40;;;;;;;;;;5065842;28;20183;-78
2022/12/13 12:06:56;;;;;;;19.13;14.07;;;;;;;;;;5062009;28;20186;-77
2022/12/13 12:09:23;;;;;;;18.00;14.00;;;;;;;;;;5053976;28;20562;-78
2022/12/13 12:12:04;;;;;;;19.47;14.67;;;;;;;;;;5060214;28;20702;-78
2022/12/13 12:14:48;;;;;;;18.07;13.67;;;;;;;;;;5065462;28;20196;-77
2022/12/13 12:17:15;;;;;;;17.33;13.87;;;;;;;;;;5055277;28;20304;-78
2022/12/13 12:19:43;;;;;;;17.73;13.90;;;;;;;;;;5064227;28;20234;-78
2022/12/13 12:22:18;;;;;;;19.60;14.60;;;;;;;;;;5066974;28;20180;-78
2022/12/13 12:24:59;;;;;;;17.97;13.90;;;;;;;;;;5066045;28;20699;-78
2022/12/13 12:27:27;;;;;;;23.37;15.67;;;;;;;;;;5067295;28;20186;-78
2022/12/13 12:30:06;;;;;;;40.80;27.27;;;;;;;;;;5057238;28;20194;-77
2022/12/13 12:32:51;;;;;;;34.90;20.37;;;;;;;;;;5062204;28;20192;-79
2022/12/13 12:35:29;;;;;;;37.20;23.00;;;;;;;;;;5061724;28;20227;-78
2022/12/13 12:37:57;;;;;;;20.70;15.10;;;;;;;;;;5076852;28;20241;-79
2022/12/13 12:40:36;;;;;;;21.63;15.13;;;;;;;;;;5058171;28;20187;-79
2022/12/13 12:43:12;;;;;;;20.33;14.13;;;;;;;;;;5061626;28;20202;-78
2022/12/13 12:45:47;;;;;;;20.57;14.50;;;;;;;;;;5067781;28;20225;-78
2022/12/13 12:48:28;;;;;;;19.33;14.43;;;;;;;;;;5068428;28;20546;-79
2022/12/13 12:51:09;;;;;;;19.47;14.33;;;;;;;;;;5067684;28;20188;-78
2022/12/13 12:53:46;;;;;;;19.70;14.00;;;;;;;;;;5078666;28;20182;-78
2022/12/13 12:56:21;;;;;;;20.37;13.63;;;;;;;;;;5067569;28;20263;-78
2022/12/13 12:59:02;;;;;;;22.30;14.20;;;;;;;;;;5068708;28;20265;-78
2022/12/13 13:01:34;;;;;;;20.30;14.67;;;;;;;;;;5053447;28;20198;-78
2022/12/13 13:04:03;;;;;;;19.63;14.63;;;;;;;;;;5068607;28;20173;-78
2022/12/13 13:06:33;;;;;;;22.53;15.47;;;;;;;;;;5069289;28;20233;-78
2022/12/13 13:09:01;;;;;;;17.07;13.40;;;;;;;;;;5060921;28;20207;-78
2022/12/13 13:11:33;;;;;;;19.90;14.13;;;;;;;;;;5061785;28;20184;-78
2022/12/13 13:13:59;;;;;;;22.23;15.07;;;;;;;;;;5064240;28;20667;-78
2022/12/13 13:16:28;;;;;;;21.23;14.00;;;;;;;;;;5050089;28;20185;-78
2022/12/13 13:18:55;;;;;;;18.77;14.60;;;;;;;;;;5068865;28;20335;-78
2022/12/13 13:21:32;;;;;;;21.53;15.67;;;;;;;;;;5059609;28;20204;-78
2022/12/13 13:24:01;;;;;;;19.53;14.33;;;;;;;;;;5061170;28;20187;-79
2022/12/13 13:26:28;;;;;;;18.80;14.33;;;;;;;;;;5066665;28;20202;-78
2022/12/13 13:28:55;;;;;;;18.03;13.47;;;;;;;;;;5061692;28;20198;-78
2022/12/13 13:31:21;;;;;;;19.50;14.20;;;;;;;;;;5062754;28;20291;-79
2022/12/13 13:33:51;;;;;;;20.67;15.20;;;;;;;;;;5058404;28;20210;-78
2022/12/13 13:36:36;;;;;;;24.37;14.40;;;;;;;;;;5062342;28;20331;-79
2022/12/13 13:39:02;;;;;;;20.50;14.33;;;;;;;;;;5057718;28;20302;-78
2022/12/13 13:41:46;;;;;;;20.83;15.20;;;;;;;;;;5054509;28;20219;-78
2022/12/13 13:44:32;;;;;;;19.10;13.50;;;;;;;;;;5060401;28;20272;-78
2022/12/13 13:47:14;;;;;;;19.40;14.40;;;;;;;;;;5061698;28;20181;-78
2022/12/13 13:49:59;;;;;;;17.60;13.27;;;;;;;;;;5052114;28;20701;-78
2022/12/13 13:52:43;;;;;;;19.43;13.63;;;;;;;;;;5077948;28;20189;-78
2022/12/13 13:55:18;;;;;;;19.27;14.47;;;;;;;;;;5062218;28;20617;-79
2022/12/13 13:57:50;;;;;;;18.87;13.10;;;;;;;;;;5055714;28;20590;-78
2022/12/13 14:00:46;;;;;;;16.40;12.90;;;;;;;;;;5055374;28;20222;-78
2022/12/13 14:03:33;;;;;;;21.77;15.50;;;;;;;;;;5067115;28;20202;-77
2022/12/13 14:05:59;;;;;;;20.67;14.67;;;;;;;;;;5020850;28;20199;-78
2022/12/13 14:08:25;;;;;;;17.90;13.40;;;;;;;;;;5023921;28;20237;-78
2022/12/13 14:10:51;;;;;;;21.80;15.40;;;;;;;;;;5018453;28;20187;-78
2022/12/13 14:13:17;;;;;;;18.97;14.37;;;;;;;;;;5025261;28;20191;-79
2022/12/13 14:16:01;;;;;;;19.77;14.30;;;;;;;;;;5016660;28;20251;-79
2022/12/13 14:18:42;;;;;;;19.93;14.17;;;;;;;;;;5025974;28;20207;-78
2022/12/13 14:21:18;;;;;;;19.03;13.00;;;;;;;;;;5025862;28;20245;-78
2022/12/13 14:24:03;;;;;;;21.83;15.40;;;;;;;;;;5026041;28;20237;-78
2022/12/13 14:26:49;;;;;;;21.77;15.77;;;;;;;;;;5015891;28;20199;-78
2022/12/13 14:29:16;;;;;;;23.37;16.00;;;;;;;;;;5017385;28;20826;-78
2022/12/13 14:31:45;;;;;;;25.80;16.90;;;;;;;;;;5014047;28;20207;-78
2022/12/13 14:34:19;;;;;;;23.27;15.17;;;;;;;;;;5013777;28;20187;-78